createdAt,value
2023-01-20T00:01:09.626Z,1.80
2023-01-20T00:03:37.945Z,1.90
2023-01-20T00:06:06.153Z,1.90
2023-01-20T00:08:34.220Z,1.90
2023-01-20T00:11:06.996Z,1.90
2023-01-20T00:13:36.610Z,1.80
2023-01-20T00:16:05.251Z,1.80
2023-01-20T00:18:33.464Z,1.80
2023-01-20T00:21:05.351Z,1.80
2023-01-20T00:23:34.092Z,1.80
2023-01-20T00:26:05.841Z,1.80
2023-01-20T00:28:34.314Z,1.80
2023-01-20T00:31:13.783Z,1.80
2023-01-20T00:33:42.188Z,1.80
2023-01-20T00:36:11.825Z,1.80
2023-01-20T00:38:40.421Z,1.70
2023-01-20T00:41:08.872Z,1.80
2023-01-20T00:43:37.370Z,1.70
2023-01-20T00:46:05.968Z,1.70
2023-01-20T00:48:36.062Z,1.70
2023-01-20T00:51:04.671Z,1.70
2023-01-20T00:53:33.463Z,1.80
2023-01-20T00:56:01.583Z,1.80
2023-01-20T00:58:29.574Z,1.80
2023-01-20T01:00:58.863Z,1.80
2023-01-20T01:03:28.697Z,1.90
2023-01-20T01:06:06.788Z,1.90
2023-01-20T01:08:35.064Z,1.90
2023-01-20T01:11:03.134Z,1.90
2023-01-20T01:13:31.285Z,1.90
2023-01-20T01:15:59.501Z,1.90
2023-01-20T01:18:27.498Z,1.90
2023-01-20T01:20:58.565Z,1.90
2023-01-20T01:23:26.532Z,1.90
2023-01-20T01:25:54.525Z,2.00
2023-01-20T01:28:22.493Z,1.90
2023-01-20T01:30:50.556Z,2.00
2023-01-20T01:33:18.563Z,2.00
2023-01-20T01:35:57.642Z,2.00
2023-01-20T01:38:26.500Z,2.00
2023-01-20T01:40:56.336Z,1.90
2023-01-20T01:43:26.129Z,1.90
2023-01-20T01:45:54.672Z,1.90
2023-01-20T01:48:24.971Z,1.80
2023-01-20T01:50:56.860Z,1.90
2023-01-20T01:53:28.061Z,1.90
2023-01-20T01:55:59.788Z,1.90
2023-01-20T01:58:30.973Z,1.90
2023-01-20T02:00:59.350Z,1.90
2023-01-20T02:03:32.839Z,1.90
2023-01-20T02:06:01.555Z,1.90
2023-01-20T02:08:31.334Z,2.00
2023-01-20T02:10:59.313Z,1.90
2023-01-20T02:13:27.408Z,1.90
2023-01-20T02:16:06.357Z,1.90
2023-01-20T02:18:45.485Z,1.90
2023-01-20T02:21:48.963Z,1.90
2023-01-20T02:25:01.764Z,1.90
2023-01-20T02:27:50.448Z,1.90
2023-01-20T02:30:50.456Z,1.90
2023-01-20T02:33:25.529Z,1.90
2023-01-20T02:35:58.201Z,1.80
2023-01-20T02:38:33.463Z,1.80
2023-01-20T02:41:08.941Z,1.90
2023-01-20T02:43:43.360Z,1.90
2023-01-20T02:46:16.796Z,1.90
2023-01-20T02:48:52.333Z,1.90
2023-01-20T02:51:25.279Z,1.90
2023-01-20T02:53:56.346Z,1.80
2023-01-20T02:56:28.248Z,1.90
2023-01-20T02:59:00.122Z,1.90
2023-01-20T03:01:33.001Z,1.90
2023-01-20T03:04:04.999Z,1.80
2023-01-20T03:06:36.515Z,1.80
2023-01-20T03:09:08.197Z,1.80
2023-01-20T03:11:39.950Z,1.90
2023-01-20T03:14:12.149Z,1.90
2023-01-20T03:16:55.380Z,2.00
2023-01-20T03:19:24.840Z,1.90
2023-01-20T03:21:53.382Z,1.90
2023-01-20T03:24:23.262Z,1.80
2023-01-20T03:26:51.249Z,1.80
2023-01-20T03:29:19.243Z,1.80
2023-01-20T03:31:51.625Z,1.80
2023-01-20T03:34:23.112Z,1.80
2023-01-20T03:36:54.252Z,1.80
2023-01-20T03:39:23.503Z,1.80
2023-01-20T03:42:02.542Z,1.80
2023-01-20T03:44:40.711Z,1.80
2023-01-20T03:47:15.294Z,1.90
2023-01-20T03:49:52.425Z,1.90
2023-01-20T03:52:47.926Z,1.90
2023-01-20T03:55:17.857Z,1.90
2023-01-20T03:57:52.994Z,1.90
2023-01-20T04:00:24.987Z,1.90
2023-01-20T04:02:55.405Z,1.90
2023-01-20T04:05:23.737Z,1.90
2023-01-20T04:07:57.242Z,1.90
2023-01-20T04:10:26.244Z,1.90
2023-01-20T04:12:55.035Z,1.90
2023-01-20T04:15:24.625Z,1.80
2023-01-20T04:17:52.593Z,1.80
2023-01-20T04:20:20.990Z,1.80
2023-01-20T04:22:51.957Z,1.70
2023-01-20T04:25:26.504Z,1.80
2023-01-20T04:27:54.477Z,1.80
2023-01-20T04:30:22.782Z,1.80
2023-01-20T04:32:50.920Z,1.80
2023-01-20T04:35:20.792Z,1.90
2023-01-20T04:37:48.782Z,1.90
2023-01-20T04:40:17.275Z,1.80
2023-01-20T04:42:46.609Z,1.80
2023-01-20T04:45:17.635Z,1.80
2023-01-20T04:47:45.994Z,1.80
2023-01-20T04:50:15.280Z,1.80
2023-01-20T04:52:43.798Z,1.80
2023-01-20T04:55:12.610Z,1.80
2023-01-20T04:57:40.750Z,1.80
2023-01-20T05:00:12.291Z,1.70
2023-01-20T05:02:40.290Z,1.60
2023-01-20T05:05:09.025Z,1.50
2023-01-20T05:07:36.984Z,1.50
2023-01-20T05:10:05.509Z,1.40
2023-01-20T05:12:33.480Z,1.40
2023-01-20T05:15:01.534Z,1.40
2023-01-20T05:17:30.864Z,1.40
2023-01-20T05:19:58.861Z,1.40
2023-01-20T05:22:26.862Z,1.40
2023-01-20T05:24:54.852Z,1.50
2023-01-20T05:27:22.812Z,1.40
2023-01-20T05:29:50.794Z,1.40
2023-01-20T05:32:18.807Z,1.30
2023-01-20T05:34:48.120Z,1.20
2023-01-20T05:37:18.260Z,1.10
2023-01-20T05:39:46.258Z,1.10
2023-01-20T05:42:14.291Z,1.10
2023-01-20T05:44:42.281Z,1.10
2023-01-20T05:47:10.638Z,1.10
2023-01-20T05:49:38.609Z,1.10
2023-01-20T05:52:07.960Z,1.10
2023-01-20T05:54:35.956Z,1.10
2023-01-20T05:57:05.661Z,1.00
2023-01-20T05:59:33.647Z,1.00
2023-01-20T06:02:01.665Z,1.00
2023-01-20T06:04:29.878Z,0.90
2023-01-20T06:06:57.877Z,0.90
2023-01-20T06:09:27.225Z,0.90
2023-01-20T06:11:55.225Z,0.80
2023-01-20T06:14:23.205Z,0.90
2023-01-20T06:16:51.575Z,0.90
2023-01-20T06:19:19.691Z,1.00
2023-01-20T06:21:48.675Z,1.10
2023-01-20T06:24:16.916Z,1.00
2023-01-20T06:26:46.264Z,1.00
2023-01-20T06:29:14.263Z,1.00
2023-01-20T06:31:42.311Z,1.10
2023-01-20T06:34:11.441Z,1.00
2023-01-20T06:36:39.676Z,0.90
2023-01-20T06:39:07.835Z,0.90
2023-01-20T06:41:35.811Z,0.90
2023-01-20T06:44:05.360Z,0.80
2023-01-20T06:46:33.387Z,0.80
2023-01-20T06:49:01.377Z,0.80
2023-01-20T06:51:31.170Z,0.70
2023-01-20T06:53:59.347Z,0.80
2023-01-20T06:56:27.677Z,0.80
2023-01-20T06:58:56.041Z,0.80
2023-01-20T07:01:28.882Z,0.90
2023-01-20T07:03:57.535Z,0.90
2023-01-20T07:06:29.380Z,0.90
2023-01-20T07:08:58.972Z,0.90
2023-01-20T07:11:27.151Z,0.90
2023-01-20T07:13:55.268Z,0.90
2023-01-20T07:16:23.376Z,0.80
2023-01-20T07:18:53.912Z,0.80
2023-01-20T07:21:23.496Z,0.80
2023-01-20T07:23:53.310Z,0.90
2023-01-20T07:26:22.735Z,0.90
2023-01-20T07:28:51.967Z,1.00
2023-01-20T07:31:23.303Z,1.00
2023-01-20T07:33:53.151Z,0.90
2023-01-20T07:36:21.189Z,0.90
2023-01-20T07:38:50.113Z,1.00
2023-01-20T07:41:19.916Z,1.00
2023-01-20T07:43:49.490Z,0.90
2023-01-20T07:46:18.110Z,1.00
2023-01-20T07:48:46.301Z,1.00
2023-01-20T07:51:17.277Z,1.00
2023-01-20T07:53:46.899Z,1.00
2023-01-20T07:56:16.752Z,0.90
2023-01-20T07:58:45.959Z,0.80
2023-01-20T08:01:16.373Z,1.00
2023-01-20T08:03:45.231Z,0.80
2023-01-20T08:06:16.469Z,0.80
2023-01-20T08:08:44.969Z,0.90
2023-01-20T08:11:14.734Z,1.00
2023-01-20T08:13:43.531Z,1.00
2023-01-20T08:16:13.282Z,1.00
2023-01-20T08:18:41.740Z,1.10
2023-01-20T08:21:20.824Z,1.20
2023-01-20T08:23:48.990Z,1.30
2023-01-20T08:26:20.214Z,1.10
2023-01-20T08:28:48.495Z,1.20
2023-01-20T08:31:19.262Z,1.10
2023-01-20T08:33:47.903Z,1.20
2023-01-20T08:36:17.985Z,1.20
2023-01-20T08:38:48.421Z,1.30
2023-01-20T08:41:18.468Z,1.30
2023-01-20T08:43:46.533Z,1.30
2023-01-20T08:46:17.255Z,1.30
2023-01-20T08:48:45.683Z,1.40
2023-01-20T08:51:16.578Z,1.50
2023-01-20T08:53:45.048Z,1.50
2023-01-20T08:56:15.479Z,1.40
2023-01-20T08:58:44.865Z,1.50
2023-01-20T09:01:13.909Z,1.60
2023-01-20T09:03:49.438Z,1.70
2023-01-20T09:06:27.502Z,1.70
2023-01-20T09:08:55.615Z,1.70
2023-01-20T09:11:26.286Z,1.50
2023-01-20T09:13:56.086Z,1.60
2023-01-20T09:16:25.247Z,1.60
2023-01-20T09:18:53.279Z,1.70
2023-01-20T09:21:21.288Z,1.70
2023-01-20T09:23:49.290Z,1.70
2023-01-20T09:26:33.478Z,1.70
2023-01-20T09:29:10.385Z,1.70
2023-01-20T09:31:39.414Z,1.70
2023-01-20T09:34:07.557Z,1.80
2023-01-20T09:36:35.553Z,1.80
2023-01-20T09:39:20.849Z,1.80
2023-01-20T09:42:07.660Z,1.70
2023-01-20T09:44:48.962Z,1.70
2023-01-20T09:47:28.592Z,1.60
2023-01-20T09:50:43.404Z,1.60
2023-01-20T09:53:20.760Z,1.50
2023-01-20T09:55:52.145Z,1.40
2023-01-20T09:58:28.799Z,1.50
2023-01-20T10:01:07.968Z,1.40
2023-01-20T10:03:41.840Z,1.50
2023-01-20T10:06:14.068Z,1.50
2023-01-20T10:09:04.169Z,1.50
2023-01-20T10:11:38.150Z,1.70
2023-01-20T10:14:15.016Z,2.00
2023-01-20T10:16:50.636Z,2.10
2023-01-20T10:19:27.280Z,2.30
2023-01-20T10:22:05.905Z,2.30
2023-01-20T10:24:38.176Z,2.30
2023-01-20T10:27:06.469Z,2.20
2023-01-20T10:29:37.399Z,2.00
2023-01-20T10:32:13.812Z,2.10
2023-01-20T10:34:46.616Z,2.00
2023-01-20T10:37:16.323Z,2.00
2023-01-20T10:39:50.921Z,2.00
2023-01-20T10:42:20.050Z,2.10
2023-01-20T10:44:51.019Z,2.10
2023-01-20T10:47:40.335Z,2.10
2023-01-20T10:50:28.277Z,2.20
2023-01-20T10:53:13.523Z,2.20
2023-01-20T10:55:52.369Z,2.30
2023-01-20T10:58:25.793Z,2.30
2023-01-20T11:00:53.951Z,2.30
2023-01-20T11:03:24.567Z,2.50
2023-01-20T11:05:53.820Z,2.60
2023-01-20T11:08:32.008Z,2.40
2023-01-20T11:11:01.820Z,2.30
2023-01-20T11:13:29.925Z,2.10
2023-01-20T11:16:02.622Z,2.00
2023-01-20T11:18:32.891Z,2.10
2023-01-20T11:21:03.612Z,2.10
2023-01-20T11:23:37.544Z,2.20
2023-01-20T11:26:10.950Z,2.30
2023-01-20T11:28:48.319Z,2.40
2023-01-20T11:31:17.178Z,2.70
2023-01-20T11:33:59.543Z,2.60
2023-01-20T11:36:28.093Z,2.60
2023-01-20T11:38:58.129Z,2.50
2023-01-20T11:41:28.658Z,2.40
2023-01-20T11:43:58.359Z,2.40
2023-01-20T11:46:30.626Z,2.40
2023-01-20T11:49:15.594Z,2.30
2023-01-20T11:51:52.630Z,2.30
2023-01-20T11:54:22.953Z,2.30
2023-01-20T11:56:55.161Z,2.30
2023-01-20T11:59:27.870Z,2.30
2023-01-20T12:02:00.358Z,2.30
2023-01-20T12:04:50.800Z,2.30
2023-01-20T12:07:24.580Z,2.30
2023-01-20T12:09:55.496Z,2.50
2023-01-20T12:12:34.035Z,2.60
2023-01-20T12:15:07.148Z,2.50
2023-01-20T12:17:42.346Z,2.70
2023-01-20T12:20:20.644Z,2.80
2023-01-20T12:23:00.091Z,3.00
2023-01-20T12:25:31.732Z,3.00
2023-01-20T12:28:05.250Z,2.90
2023-01-20T12:31:03.252Z,2.90
2023-01-20T12:33:33.786Z,2.90
2023-01-20T12:36:44.159Z,3.10
2023-01-20T12:39:31.692Z,3.10
2023-01-20T12:42:37.232Z,3.00
2023-01-20T12:45:20.575Z,3.10
2023-01-20T12:48:01.157Z,3.10
2023-01-20T12:50:38.092Z,3.00
2023-01-20T12:53:22.881Z,3.00
2023-01-20T12:56:01.271Z,3.00
2023-01-20T12:58:42.351Z,3.10
2023-01-20T13:01:41.094Z,3.10
2023-01-20T13:04:50.800Z,3.10
2023-01-20T13:07:41.513Z,3.10
2023-01-20T13:10:23.917Z,2.90
2023-01-20T13:12:57.526Z,3.00
2023-01-20T13:15:29.433Z,3.10
2023-01-20T13:18:26.225Z,3.00
2023-01-20T13:20:55.501Z,3.10
2023-01-20T13:23:27.131Z,3.10
2023-01-20T13:25:57.421Z,3.20
2023-01-20T13:28:27.795Z,3.20
2023-01-20T13:30:57.469Z,3.20
2023-01-20T13:33:33.991Z,3.10
2023-01-20T13:36:12.989Z,3.10
2023-01-20T13:38:41.375Z,3.00
2023-01-20T13:41:11.321Z,3.00
2023-01-20T13:43:52.376Z,3.00
2023-01-20T13:46:46.914Z,3.00
2023-01-20T13:49:23.366Z,3.00
2023-01-20T13:51:51.515Z,3.00
2023-01-20T13:54:45.740Z,3.10
2023-01-20T13:57:48.193Z,2.90
2023-01-20T14:00:19.345Z,2.90
2023-01-20T14:02:49.126Z,2.90
2023-01-20T14:05:32.825Z,2.90
2023-01-20T14:08:01.325Z,2.90
2023-01-20T14:10:29.556Z,2.90
2023-01-20T14:12:58.905Z,2.70
2023-01-20T14:15:41.213Z,2.70
2023-01-20T14:18:17.713Z,2.70
2023-01-20T14:20:57.982Z,2.80
2023-01-20T14:23:37.900Z,2.80
2023-01-20T14:26:14.196Z,2.80
2023-01-20T14:28:49.849Z,2.80
2023-01-20T14:31:33.979Z,2.70
2023-01-20T14:34:04.761Z,2.80
2023-01-20T14:36:34.219Z,2.80
2023-01-20T14:39:04.311Z,2.70
2023-01-20T14:41:35.450Z,2.70
2023-01-20T14:44:16.264Z,2.60
2023-01-20T14:46:44.351Z,2.60
2023-01-20T14:49:16.753Z,2.60
2023-01-20T14:51:46.165Z,2.60
2023-01-20T14:54:38.938Z,2.60
2023-01-20T14:57:23.223Z,2.60
2023-01-20T15:00:17.986Z,2.60
2023-01-20T15:03:04.929Z,2.60
2023-01-20T15:05:39.369Z,2.70
2023-01-20T15:08:24.392Z,2.60
2023-01-20T15:11:22.407Z,2.70
2023-01-20T15:14:13.284Z,2.70
2023-01-20T15:16:49.516Z,2.60
2023-01-20T15:19:20.058Z,2.60
2023-01-20T15:21:50.036Z,2.60
2023-01-20T15:24:19.475Z,2.60
2023-01-20T15:26:49.184Z,2.60
2023-01-20T15:29:22.031Z,2.70
2023-01-20T15:31:51.620Z,2.70
2023-01-20T15:34:20.309Z,2.60
2023-01-20T15:36:49.533Z,2.70
2023-01-20T15:39:18.592Z,2.70
2023-01-20T15:41:47.598Z,2.70
2023-01-20T15:44:15.766Z,2.70
2023-01-20T15:46:43.799Z,2.70
2023-01-20T15:49:14.804Z,2.60
2023-01-20T15:51:43.686Z,2.60
2023-01-20T15:54:11.968Z,2.60
2023-01-20T15:56:42.156Z,2.60
2023-01-20T15:59:13.726Z,2.60
2023-01-20T16:01:41.833Z,2.60
2023-01-20T16:04:12.382Z,2.50
2023-01-20T16:06:40.421Z,2.40
2023-01-20T16:09:19.529Z,2.40
2023-01-20T16:11:47.966Z,2.40
2023-01-20T16:14:15.991Z,2.40
2023-01-20T16:16:44.635Z,2.40
2023-01-20T16:19:15.342Z,2.40
2023-01-20T16:21:45.464Z,2.40
2023-01-20T16:24:14.483Z,2.30
2023-01-20T16:26:45.649Z,2.20
2023-01-20T16:29:13.899Z,2.10
2023-01-20T16:31:42.043Z,2.10
2023-01-20T16:34:10.063Z,2.00
2023-01-20T16:36:39.416Z,1.90
2023-01-20T16:39:07.499Z,1.90
2023-01-20T16:41:38.227Z,1.80
2023-01-20T16:44:06.393Z,1.80
2023-01-20T16:46:34.486Z,1.70
2023-01-20T16:49:03.548Z,1.70
2023-01-20T16:51:32.618Z,1.70
2023-01-20T16:54:02.036Z,1.60
2023-01-20T16:56:31.620Z,1.60
2023-01-20T16:59:01.639Z,1.50
2023-01-20T17:01:31.086Z,1.50
2023-01-20T17:04:00.582Z,1.40
2023-01-20T17:06:30.514Z,1.30
2023-01-20T17:09:01.822Z,1.30
2023-01-20T17:11:31.934Z,1.20
2023-01-20T17:14:02.020Z,1.20
2023-01-20T17:16:30.258Z,1.10
2023-01-20T17:19:00.230Z,1.10
2023-01-20T17:21:30.603Z,1.00
2023-01-20T17:24:02.501Z,1.00
2023-01-20T17:26:31.248Z,1.00
2023-01-20T17:29:02.219Z,1.00
2023-01-20T17:31:31.867Z,1.00
2023-01-20T17:34:00.037Z,1.00
2023-01-20T17:36:29.552Z,1.00
2023-01-20T17:38:59.054Z,1.10
2023-01-20T17:41:28.631Z,1.10
2023-01-20T17:43:56.653Z,1.10
2023-01-20T17:46:27.697Z,1.00
2023-01-20T17:48:58.007Z,1.00
2023-01-20T17:51:27.866Z,0.90
2023-01-20T17:53:55.967Z,0.90
2023-01-20T17:56:24.153Z,0.90
2023-01-20T17:58:54.124Z,0.90
2023-01-20T18:01:24.259Z,0.90
2023-01-20T18:03:54.652Z,0.90
2023-01-20T18:06:24.738Z,0.90
2023-01-20T18:08:54.442Z,1.00
2023-01-20T18:11:23.616Z,1.00
2023-01-20T18:13:55.170Z,1.00
2023-01-20T18:16:24.490Z,0.90
2023-01-20T18:18:53.642Z,0.90
2023-01-20T18:21:22.999Z,0.90
2023-01-20T18:23:52.117Z,1.00
2023-01-20T18:26:22.411Z,1.00
2023-01-20T18:28:54.077Z,1.00
2023-01-20T18:31:25.192Z,1.00
2023-01-20T18:33:55.256Z,1.10
2023-01-20T18:36:25.116Z,1.20
2023-01-20T18:38:54.206Z,1.20
2023-01-20T18:41:22.531Z,1.30
2023-01-20T18:43:51.291Z,1.20
2023-01-20T18:46:19.829Z,1.30
2023-01-20T18:48:51.949Z,1.20
2023-01-20T18:51:21.145Z,1.20
2023-01-20T18:53:55.616Z,1.20
2023-01-20T18:56:23.845Z,1.10
2023-01-20T18:58:52.873Z,1.20
2023-01-20T19:01:22.612Z,1.10
2023-01-20T19:03:52.628Z,1.00
2023-01-20T19:06:22.449Z,0.90
2023-01-20T19:08:51.002Z,0.70
2023-01-20T19:11:20.811Z,0.70
2023-01-20T19:13:50.001Z,0.70
2023-01-20T19:16:19.821Z,0.60
2023-01-20T19:18:54.490Z,0.60
2023-01-20T19:21:23.827Z,0.60
2023-01-20T19:23:52.717Z,0.50
2023-01-20T19:26:21.521Z,0.40
2023-01-20T19:28:55.876Z,0.30
2023-01-20T19:31:23.990Z,0.30
2023-01-20T19:33:53.583Z,0.20
2023-01-20T19:36:22.267Z,0.10
2023-01-20T19:38:51.647Z,0.10
2023-01-20T19:41:21.758Z,0.00
2023-01-20T19:43:55.572Z,0.00
2023-01-20T19:46:24.721Z,-0.10
2023-01-20T19:48:55.173Z,-0.10
2023-01-20T19:51:23.257Z,-0.30
2023-01-20T19:53:55.639Z,-0.30
2023-01-20T19:56:23.973Z,-0.30
2023-01-20T19:58:53.479Z,-0.40
2023-01-20T20:01:24.068Z,-0.40
2023-01-20T20:03:54.217Z,-0.40
2023-01-20T20:06:27.920Z,-0.50
2023-01-20T20:08:59.088Z,-0.50
2023-01-20T20:11:27.711Z,-0.60
2023-01-20T20:13:57.594Z,-0.70
2023-01-20T20:16:29.211Z,-0.80
2023-01-20T20:18:59.534Z,-0.80
2023-01-20T20:21:28.455Z,-0.80
2023-01-20T20:23:58.405Z,-0.80
2023-01-20T20:26:28.680Z,-0.90
2023-01-20T20:28:59.208Z,-0.90
2023-01-20T20:31:29.445Z,-0.90
2023-01-20T20:34:00.106Z,-1.00
2023-01-20T20:36:30.865Z,-1.00
2023-01-20T20:38:59.477Z,-1.00
2023-01-20T20:41:30.557Z,-1.10
2023-01-20T20:43:59.633Z,-1.10
2023-01-20T20:46:28.029Z,-1.10
2023-01-20T20:48:56.588Z,-1.10
2023-01-20T20:51:26.713Z,-1.10
2023-01-20T20:53:56.058Z,-1.10
2023-01-20T20:56:24.930Z,-1.20
2023-01-20T20:59:01.548Z,-1.30
2023-01-20T21:01:32.734Z,-1.30
2023-01-20T21:04:01.034Z,-1.40
2023-01-20T21:06:32.115Z,-1.40
2023-01-20T21:09:00.271Z,-1.40
2023-01-20T21:11:29.202Z,-1.50
2023-01-20T21:13:57.384Z,-1.50
2023-01-20T21:16:27.657Z,-1.50
2023-01-20T21:18:57.208Z,-1.50
2023-01-20T21:21:26.273Z,-1.50
2023-01-20T21:23:57.271Z,-1.50
2023-01-20T21:26:29.986Z,-1.60
2023-01-20T21:29:00.247Z,-1.50
2023-01-20T21:31:28.448Z,-1.50
2023-01-20T21:33:58.393Z,-1.50
2023-01-20T21:36:27.019Z,-1.50
2023-01-20T21:38:56.421Z,-1.50
2023-01-20T21:41:24.474Z,-1.60
2023-01-20T21:44:09.950Z,-1.70
2023-01-20T21:46:40.270Z,-1.70
2023-01-20T21:49:26.514Z,-1.70
2023-01-20T21:52:12.643Z,-1.80
2023-01-20T21:54:42.397Z,-1.80
2023-01-20T21:57:10.901Z,-1.80
2023-01-20T21:59:39.223Z,-1.80
2023-01-20T22:02:07.463Z,-1.80
2023-01-20T22:04:35.694Z,-1.80
2023-01-20T22:07:03.684Z,-1.70
2023-01-20T22:09:31.671Z,-1.70
2023-01-20T22:12:01.383Z,-1.70
2023-01-20T22:14:29.471Z,-1.70
2023-01-20T22:16:58.240Z,-1.70
2023-01-20T22:19:26.921Z,-1.70
2023-01-20T22:21:56.812Z,-1.70
2023-01-20T22:24:24.840Z,-1.70
2023-01-20T22:26:53.330Z,-1.70
2023-01-20T22:29:22.998Z,-1.70
2023-01-20T22:31:53.572Z,-1.70
2023-01-20T22:34:22.188Z,-1.70
2023-01-20T22:36:50.693Z,-1.80
2023-01-20T22:39:18.819Z,-1.80
2023-01-20T22:41:46.812Z,-1.80
2023-01-20T22:44:14.965Z,-1.80
2023-01-20T22:46:44.334Z,-1.80
2023-01-20T22:49:13.514Z,-1.80
2023-01-20T22:51:41.486Z,-1.80
2023-01-20T22:54:10.767Z,-1.80
2023-01-20T22:56:39.996Z,-1.80
2023-01-20T22:59:08.195Z,-1.70
2023-01-20T23:01:37.312Z,-1.70
2023-01-20T23:04:07.873Z,-1.60
2023-01-20T23:06:38.035Z,-1.60
2023-01-20T23:09:08.729Z,-1.60
2023-01-20T23:11:38.313Z,-1.60
2023-01-20T23:14:06.951Z,-1.50
2023-01-20T23:16:35.132Z,-1.50
2023-01-20T23:19:03.217Z,-1.60
2023-01-20T23:21:32.963Z,-1.60
2023-01-20T23:24:01.010Z,-1.60
2023-01-20T23:26:31.072Z,-1.50
2023-01-20T23:28:59.103Z,-1.60
2023-01-20T23:31:28.711Z,-1.60
2023-01-20T23:33:57.934Z,-1.60
2023-01-20T23:36:27.015Z,-1.60
2023-01-20T23:38:57.280Z,-1.60
2023-01-20T23:41:25.894Z,-1.60
2023-01-20T23:43:54.209Z,-1.60
2023-01-20T23:46:22.570Z,-1.60
2023-01-20T23:48:50.573Z,-1.70
2023-01-20T23:51:18.742Z,-1.70
2023-01-20T23:53:46.813Z,-1.70
2023-01-20T23:56:18.417Z,-1.70
2023-01-20T23:58:46.760Z,-1.70
